Observations de surface / France / LFLS

Québec | Canada | États-Unis | France | UK | Europe | Ailleurs

Affichage: Infos & localisation pour LFLS | Aide pour décoder les METARs

LFLS GRENOBLE/ST. GEOIRS -- FR
Raw surface observations for station LFLS
LFLS 211700Z AUTO VRB03KT 8000 NSC M01/M05 Q1023 NOSIG=
LFLS 211630Z AUTO 03007KT 8000 NSC M00/M04 Q1023 NOSIG=
LFLS 211600Z AUTO 01009KT 9000 NSC 00/M04 Q1023 NOSIG=
LFLS 211530Z AUTO 02003KT CAVOK 01/M04 Q1023 NOSIG=
LFLS 211500Z AUTO 36003KT 9000 NSC 02/M03 Q1023 NOSIG=
LFLS 211430Z AUTO 11002KT 9000 NSC 03/M03 Q1023 NOSIG=
LFLS 211400Z AUTO 03005KT 9000 NSC 02/M03 Q1023 NOSIG=
LFLS 211330Z AUTO 01006KT 330V030 8000 NSC 02/M03 Q1024 NOSIG=
LFLS 211300Z AUTO 00000KT 8000 NSC 03/M03 Q1024 NOSIG=
LFLS 211230Z AUTO VRB02KT 9000 NSC 02/M03 Q1024 NOSIG=
LFLS 211200Z AUTO 10003KT 8000 NSC 02/M04 Q1024 NOSIG=
LFLS 211130Z AUTO 08003KT 8000 NSC 01/M04 Q1025 NOSIG=
LFLS 211100Z AUTO 08003KT 040V120 9000 NSC 01/M04 Q1025 NOSIG=
LFLS 211030Z AUTO 09008KT 9000 NSC M01/M04 Q1025 NOSIG=
LFLS 211000Z AUTO 09008KT 8000 NSC M01/M05 Q1026 NOSIG=
LFLS 210930Z AUTO 09011KT 9000 NSC M01/M05 Q1026 NOSIG=
LFLS 210900Z AUTO 07005KT 9000 NSC M02/M06 Q1026 NOSIG=
LFLS 210830Z AUTO 08007KT 040V100 7000 NSC M03/M06 Q1025 NOSIG=
LFLS 210800Z AUTO 06005KT 7000 NSC M04/M06 Q1025 NOSIG=
LFLS 210730Z AUTO 07009KT 8000 NSC M03/M06 Q1025 NOSIG=
LFLS 210700Z AUTO 08008KT 7000 NSC M04/M06 Q1025 NOSIG=
LFLS 210630Z AUTO 08011KT 7000 NSC M04/M06 Q1025 NOSIG=
LFLS 210600Z AUTO 08012KT 7000 NSC M04/M06 Q1025 TEMPO 4000 BR=
LFLS 210530Z AUTO 08010KT 7000 NSC M04/M06 Q1025 TEMPO 4000 BR=
LFLS 210500Z AUTO 09011KT 7000 NSC M03/M06 Q1025 TEMPO 4000 BR=
LFLS 210430Z AUTO 08009KT 7000 NSC M04/M06 Q1025 TEMPO 4000 BR=
LFLS 210400Z AUTO 09010KT 6000 NSC M05/M06 Q1026 TEMPO 4000 BR=
LFLS 210330Z AUTO 09010KT 7000 NSC M04/M06 Q1026 TEMPO 4000 BR=
LFLS 210300Z AUTO 10011KT 6000 NSC M04/M06 Q1026 TEMPO 4000 BR=
LFLS 210230Z AUTO 10012KT 6000 NSC M04/M06 Q1026 TEMPO 4000 BR=
LFLS 210200Z AUTO 10009KT 7000 NSC M05/M07 Q1026=
LFLS 210130Z AUTO 10010KT 6000 NSC M05/M07 Q1026=
LFLS 210100Z AUTO 09009KT 7000 NSC M04/M06 Q1026=
LFLS 210030Z AUTO 09010KT 7000 NSC M04/M06 Q1026=
LFLS 210000Z AUTO 09008KT 7000 NSC M04/M06 Q1026=
LFLS 202330Z AUTO 09009KT 7000 NSC M04/M06 Q1026=
LFLS 202300Z AUTO 09007KT 7000 NSC M07/M09 Q1027=
LFLS 202230Z AUTO 08007KT 7000 NSC M05/M07 Q1027=
LFLS 202200Z AUTO 09006KT 6000 NSC M07/M09 Q1027=
LFLS 202130Z AUTO 08007KT 7000 NSC M05/M06 Q1027=
LFLS 202100Z AUTO 10007KT 6000 NSC M06/M08 Q1027=
LFLS 202030Z AUTO 08006KT 6000 NSC M06/M08 Q1027=
LFLS 202000Z AUTO 07004KT 7000 NSC M06/M08 Q1027 NOSIG=
LFLS 201930Z AUTO 09005KT 7000 NSC M05/M08 Q1027 NOSIG=
LFLS 201900Z AUTO 10005KT 8000 NSC M04/M07 Q1027 NOSIG=
LFLS 201830Z AUTO 08006KT 040V120 7000 NSC M05/M07 Q1026 NOSIG=
LFLS 201800Z AUTO 08005KT 7000 NSC M05/M07 Q1027 NOSIG=
LFLS 201730Z AUTO 10004KT 8000 NSC M04/M07 Q1027 NOSIG=
LFLS 201700Z AUTO 10005KT 8000 NSC M02/M06 Q1026 NOSIG=